Time;durP1;ratioP1;P1;durP2;ratioP2;P2;SDS_P1;SDS_P2;PMS_P1;PMS_P2;Temp;Humidity;BMP_temperature;BMP_pressure;BME280_temperature;BME280_humidity;BME280_pressure;Samples;Min_cycle;Max_cycle;Signal;HPM_P1;HPM_P2
2022/03/05 00:00:34;;;;;;;43.40;12.23;;;0.30;99.90;;;;;;5014777;28;20026;-54
2022/03/05 00:03:00;;;;;;;42.08;12.90;;;0.30;99.90;;;;;;5016066;28;20030;-54
2022/03/05 00:05:27;;;;;;;42.25;13.23;;;0.30;99.90;;;;;;5015208;28;20022;-49
2022/03/05 00:07:52;;;;;;;39.53;11.23;;;0.20;99.90;;;;;;5016284;28;20053;-51
2022/03/05 00:10:19;;;;;;;36.03;12.07;;;0.30;99.90;;;;;;5015916;28;20026;-48
2022/03/05 00:12:49;;;;;;;48.80;12.65;;;0.30;99.90;;;;;;5014193;28;20480;-50
2022/03/05 00:15:14;;;;;;;41.13;13.23;;;0.20;99.90;;;;;;5014572;28;20120;-52
2022/03/05 00:17:40;;;;;;;43.95;11.52;;;0.20;99.90;;;;;;5015737;28;20120;-55
2022/03/05 00:20:06;;;;;;;42.40;11.20;;;0.10;99.90;;;;;;5014400;28;20116;-52
2022/03/05 00:22:32;;;;;;;41.22;11.90;;;0.00;99.90;;;;;;5015674;28;20018;-48
2022/03/05 00:24:58;;;;;;;44.67;11.88;;;0.00;99.90;;;;;;5014449;28;20072;-49
2022/03/05 00:27:24;;;;;;;37.63;11.95;;;0.10;99.90;;;;;;5014208;28;20045;-48
2022/03/05 00:29:50;;;;;;;38.88;11.60;;;0.10;99.90;;;;;;5015824;28;20057;-54
2022/03/05 00:32:16;;;;;;;43.60;11.40;;;0.10;99.90;;;;;;5015456;28;20097;-48
2022/03/05 00:34:42;;;;;;;40.88;12.63;;;0.10;99.90;;;;;;5014878;28;20164;-51
2022/03/05 00:37:08;;;;;;;44.40;12.05;;;0.10;99.90;;;;;;5015332;28;20037;-52
2022/03/05 00:39:34;;;;;;;37.30;11.68;;;0.10;99.90;;;;;;5014697;28;20369;-53
2022/03/05 00:42:00;;;;;;;45.10;13.57;;;0.10;99.90;;;;;;5014051;28;20026;-52
2022/03/05 00:44:26;;;;;;;51.13;11.48;;;0.10;99.90;;;;;;5014037;28;20168;-48
2022/03/05 00:46:51;;;;;;;45.45;13.68;;;0.10;99.90;;;;;;5015165;28;20029;-51
2022/03/05 00:49:17;;;;;;;47.67;11.48;;;0.00;99.90;;;;;;5014803;28;20029;-53
2022/03/05 00:51:42;;;;;;;42.08;11.50;;;0.00;99.90;;;;;;5013871;28;20255;-54
2022/03/05 00:54:08;;;;;;;43.28;11.73;;;0.10;99.90;;;;;;5013885;28;20026;-54
2022/03/05 00:56:34;;;;;;;39.50;10.50;;;0.10;99.90;;;;;;5015077;28;20495;-50
2022/03/05 00:59:00;;;;;;;40.33;11.63;;;0.10;99.90;;;;;;5013699;28;20029;-48
2022/03/05 01:01:26;;;;;;;42.05;11.77;;;0.10;99.90;;;;;;5015445;28;20022;-49
2022/03/05 01:03:52;;;;;;;44.75;11.90;;;0.00;99.90;;;;;;5013661;28;20477;-50
2022/03/05 01:06:18;;;;;;;39.67;11.68;;;0.00;99.90;;;;;;5013442;28;20057;-53
2022/03/05 01:08:43;;;;;;;44.97;12.55;;;0.00;99.90;;;;;;5013519;28;20031;-53
2022/03/05 01:11:09;;;;;;;45.67;13.32;;;0.00;99.90;;;;;;5014217;28;20030;-53
2022/03/05 01:13:36;;;;;;;41.25;11.27;;;0.00;99.90;;;;;;5014744;28;20104;-49
2022/03/05 01:16:01;;;;;;;45.33;11.98;;;0.00;99.90;;;;;;5014649;28;20106;-49
2022/03/05 01:18:27;;;;;;;40.63;11.95;;;-0.10;99.90;;;;;;5013773;28;20051;-52
2022/03/05 01:20:53;;;;;;;42.25;12.38;;;-0.10;99.90;;;;;;5014870;28;20399;-48
2022/03/05 01:23:18;;;;;;;38.00;11.05;;;-0.20;99.90;;;;;;5014184;28;20022;-49
2022/03/05 01:25:44;;;;;;;48.17;12.98;;;-0.20;99.90;;;;;;5012985;28;20018;-49
2022/03/05 01:28:10;;;;;;;42.92;10.63;;;-0.20;99.90;;;;;;5013225;28;20037;-52
2022/03/05 01:30:36;;;;;;;40.97;13.02;;;-0.20;99.90;;;;;;5014110;28;20026;-52
2022/03/05 01:33:01;;;;;;;40.92;10.80;;;-0.30;99.90;;;;;;5013458;28;20041;-53
2022/03/05 01:35:27;;;;;;;47.70;13.00;;;-0.30;99.90;;;;;;5013034;28;20038;-54
2022/03/05 01:37:53;;;;;;;48.10;12.82;;;-0.40;99.90;;;;;;5014255;28;20057;-55
2022/03/05 01:40:18;;;;;;;40.92;11.52;;;-0.40;99.90;;;;;;5012892;28;20029;-50
2022/03/05 01:42:44;;;;;;;39.70;10.75;;;-0.50;99.90;;;;;;5014551;28;20026;-48
2022/03/05 01:45:11;;;;;;;45.28;12.43;;;-0.60;99.90;;;;;;5012934;28;20093;-52
2022/03/05 01:47:40;;;;;;;38.90;11.43;;;-0.70;99.90;;;;;;5014370;28;20025;-55
2022/03/05 01:50:08;;;;;;;38.63;11.27;;;-0.70;99.90;;;;;;5014372;28;20026;-53
2022/03/05 01:52:34;;;;;;;38.42;11.48;;;-0.70;99.90;;;;;;5012777;28;20030;-53
2022/03/05 01:55:00;;;;;;;46.50;11.45;;;-0.70;99.90;;;;;;5013951;28;20061;-53
2022/03/05 01:57:26;;;;;;;41.03;10.98;;;-0.70;99.90;;;;;;5014098;28;20030;-54
2022/03/05 01:59:52;;;;;;;39.92;12.15;;;-0.80;99.90;;;;;;5012655;28;20480;-51
2022/03/05 02:02:17;;;;;;;46.03;11.88;;;-0.80;99.90;;;;;;5012695;28;20121;-54
2022/03/05 02:04:43;;;;;;;43.78;12.15;;;-0.90;99.90;;;;;;5014194;28;20056;-53
2022/03/05 02:07:09;;;;;;;42.75;11.18;;;-0.90;99.90;;;;;;5013179;28;20068;-50
2022/03/05 02:09:35;;;;;;;43.47;11.38;;;-0.90;99.90;;;;;;5012645;28;20511;-52
2022/03/05 02:12:01;;;;;;;38.70;12.68;;;-0.80;99.90;;;;;;5013844;28;20025;-54
2022/03/05 02:14:27;;;;;;;44.30;12.65;;;-0.80;99.90;;;;;;5012449;28;20021;-51
2022/03/05 02:16:53;;;;;;;40.60;10.80;;;-0.70;99.90;;;;;;5013208;28;20022;-52
2022/03/05 02:19:18;;;;;;;42.45;10.55;;;-0.70;99.90;;;;;;5013640;28;20033;-54
2022/03/05 02:21:47;;;;;;;42.22;11.80;;;-0.70;99.90;;;;;;5013635;28;20033;-54
2022/03/05 02:24:14;;;;;;;39.85;11.15;;;-0.70;99.90;;;;;;5012501;28;20112;-54
2022/03/05 02:26:40;;;;;;;45.03;11.18;;;-0.70;99.90;;;;;;5012155;28;20040;-53
2022/03/05 02:29:06;;;;;;;45.55;11.85;;;-0.80;99.90;;;;;;5013502;28;20018;-53
2022/03/05 02:31:32;;;;;;;46.80;12.50;;;-0.80;99.90;;;;;;5013860;28;20026;-55
2022/03/05 02:33:58;;;;;;;43.28;11.43;;;-0.70;99.90;;;;;;5012637;28;20022;-52
2022/03/05 02:36:25;;;;;;;40.25;12.13;;;-0.70;99.90;;;;;;5012965;28;20053;-51
2022/03/05 02:38:51;;;;;;;41.42;11.00;;;-0.80;99.90;;;;;;5017889;28;20024;-48
2022/03/05 02:41:18;;;;;;;41.40;12.32;;;-0.70;99.90;;;;;;5017500;28;20022;-52
2022/03/05 02:43:45;;;;;;;42.05;12.38;;;-0.90;99.90;;;;;;5016383;28;20118;-52
2022/03/05 02:46:10;;;;;;;32.15;10.40;;;-0.90;99.90;;;;;;5017430;28;20022;-49
2022/03/05 02:48:36;;;;;;;46.13;10.65;;;-1.00;99.90;;;;;;5016280;28;20089;-49
2022/03/05 02:51:02;;;;;;;44.53;11.02;;;-1.00;99.90;;;;;;5016138;28;20029;-49
2022/03/05 02:53:29;;;;;;;40.33;11.85;;;-1.00;99.90;;;;;;5017340;28;20021;-51
2022/03/05 02:55:55;;;;;;;36.13;11.57;;;-1.10;99.90;;;;;;5016007;28;20064;-48
2022/03/05 02:58:20;;;;;;;40.92;11.00;;;-1.00;99.90;;;;;;5017813;28;20022;-50
2022/03/05 03:00:46;;;;;;;39.47;11.10;;;-1.00;99.90;;;;;;5015916;28;20026;-54
2022/03/05 03:03:12;;;;;;;42.55;11.32;;;-1.00;99.90;;;;;;5017665;28;20022;-50
2022/03/05 03:05:38;;;;;;;50.72;12.38;;;-1.10;99.90;;;;;;5015855;28;20022;-49
2022/03/05 03:08:03;;;;;;;40.78;12.63;;;-1.10;99.90;;;;;;5017088;28;20061;-49
2022/03/05 03:10:29;;;;;;;37.97;10.60;;;-1.10;99.90;;;;;;5017002;28;20050;-51
2022/03/05 03:12:57;;;;;;;48.92;12.65;;;-1.20;99.90;;;;;;5017075;28;20030;-51
2022/03/05 03:15:22;;;;;;;42.72;11.65;;;-1.20;99.90;;;;;;5016932;28;20025;-49
2022/03/05 03:17:50;;;;;;;44.70;11.68;;;-1.10;99.90;;;;;;5016889;28;20026;-50
2022/03/05 03:20:22;;;;;;;46.20;11.57;;;-1.10;99.90;;;;;;5017144;28;20026;-52
2022/03/05 03:22:48;;;;;;;38.83;9.63;;;-1.00;99.90;;;;;;5016415;28;20022;-52
2022/03/05 03:25:14;;;;;;;37.33;11.25;;;-1.00;99.90;;;;;;5015735;28;20036;-51
2022/03/05 03:27:40;;;;;;;38.47;10.93;;;-1.10;99.90;;;;;;5016572;28;20030;-52
2022/03/05 03:30:09;;;;;;;48.10;11.88;;;-1.20;99.90;;;;;;5016628;28;20038;-54
2022/03/05 03:32:35;;;;;;;41.72;11.73;;;-1.30;99.90;;;;;;5016533;28;20101;-54
2022/03/05 03:35:01;;;;;;;44.88;10.52;;;-1.40;99.90;;;;;;5015633;28;20026;-49
2022/03/05 03:37:29;;;;;;;36.50;10.13;;;-1.50;99.90;;;;;;5015301;28;20026;-50
2022/03/05 03:39:59;;;;;;;45.08;12.32;;;-1.50;99.90;;;;;;5016464;28;20021;-51
2022/03/05 03:42:26;;;;;;;37.25;11.75;;;-1.60;99.90;;;;;;5016431;28;20408;-50
2022/03/05 03:44:52;;;;;;;43.65;11.70;;;-1.60;99.90;;;;;;5016418;28;20024;-54
2022/03/05 03:47:19;;;;;;;42.08;12.20;;;-1.70;99.90;;;;;;5015083;28;20122;-53
2022/03/05 03:49:45;;;;;;;40.20;11.30;;;-1.70;99.90;;;;;;5015486;28;20033;-53
2022/03/05 03:52:13;;;;;;;42.50;11.52;;;-1.60;99.90;;;;;;5016579;28;20033;-50
2022/03/05 03:54:40;;;;;;;43.78;12.95;;;-1.60;99.90;;;;;;5014995;28;20026;-51
2022/03/05 03:57:05;;;;;;;35.97;9.95;;;-1.60;99.90;;;;;;5016587;28;20026;-51
2022/03/05 03:59:31;;;;;;;47.92;11.02;;;-1.60;99.90;;;;;;5014860;28;20036;-50
2022/03/05 04:01:57;;;;;;;38.55;10.48;;;-1.60;99.90;;;;;;5016064;28;20030;-50
2022/03/05 04:04:22;;;;;;;38.95;11.32;;;-1.50;99.90;;;;;;5016333;28;20018;-50
2022/03/05 04:09:32;;;;;;;47.05;10.57;;;-1.70;99.90;;;;;;5016556;28;20060;-52
2022/03/05 04:11:58;;;;;;;36.78;10.23;;;-1.60;99.90;;;;;;5016011;28;20101;-51
2022/03/05 04:14:23;;;;;;;36.10;10.52;;;-1.50;99.90;;;;;;5014742;28;20022;-53
2022/03/05 04:16:49;;;;;;;43.67;10.38;;;-1.60;99.90;;;;;;5015909;28;20144;-50
2022/03/05 04:19:14;;;;;;;40.13;10.73;;;-1.60;99.90;;;;;;5014937;28;20481;-52
2022/03/05 04:21:40;;;;;;;38.72;10.15;;;-1.70;99.90;;;;;;5014648;28;20033;-50
2022/03/05 04:24:05;;;;;;;40.85;11.43;;;-1.70;99.90;;;;;;5015418;28;20089;-52
2022/03/05 04:26:31;;;;;;;44.30;12.30;;;-1.60;99.90;;;;;;5015743;28;20108;-53
2022/03/05 04:28:57;;;;;;;35.55;10.50;;;-1.60;99.90;;;;;;5015662;28;20021;-52
2022/03/05 04:31:22;;;;;;;32.40;9.40;;;-1.50;99.90;;;;;;5015567;28;20469;-53
2022/03/05 04:33:48;;;;;;;36.00;10.40;;;-1.60;99.90;;;;;;5014651;28;20053;-50
2022/03/05 04:36:14;;;;;;;43.10;10.93;;;-1.70;99.90;;;;;;5014189;28;20029;-54
2022/03/05 04:38:39;;;;;;;40.30;10.32;;;-1.70;99.90;;;;;;5014580;28;20026;-53
2022/03/05 04:41:05;;;;;;;42.08;11.15;;;-1.70;99.90;;;;;;5014320;28;20021;-49
2022/03/05 04:43:31;;;;;;;41.95;10.57;;;-1.70;99.90;;;;;;5014372;28;20022;-50
2022/03/05 04:45:57;;;;;;;40.45;12.57;;;-1.70;99.90;;;;;;5015168;28;20018;-50
2022/03/05 04:48:22;;;;;;;37.65;10.75;;;-1.70;99.90;;;;;;5015214;28;20021;-52
2022/03/05 04:50:48;;;;;;;45.90;10.27;;;-1.70;99.90;;;;;;5015220;28;20022;-54
2022/03/05 04:53:15;;;;;;;38.22;11.70;;;-1.80;99.90;;;;;;5013977;28;20120;-51
2022/03/05 04:55:41;;;;;;;41.53;10.25;;;-1.80;99.90;;;;;;5014930;28;20018;-51
2022/03/05 04:58:07;;;;;;;45.63;11.75;;;-1.90;99.90;;;;;;5015219;28;20116;-51
2022/03/05 05:00:32;;;;;;;40.10;11.80;;;-1.90;99.90;;;;;;5013557;28;20064;-49
2022/03/05 05:02:58;;;;;;;38.25;10.85;;;-1.90;99.90;;;;;;5013751;28;20029;-52
2022/03/05 05:05:24;;;;;;;40.17;10.75;;;-1.90;99.90;;;;;;5013544;28;20021;-51
2022/03/05 05:07:50;;;;;;;45.75;11.45;;;-2.00;99.90;;;;;;5014909;28;20024;-54
2022/03/05 05:10:15;;;;;;;43.13;11.60;;;-2.00;99.90;;;;;;5013519;28;20029;-53
2022/03/05 05:12:42;;;;;;;45.50;12.45;;;-2.00;99.90;;;;;;5013764;28;20026;-52
2022/03/05 05:15:08;;;;;;;49.72;11.93;;;-2.00;99.90;;;;;;5013413;28;20061;-53
2022/03/05 05:17:37;;;;;;;46.97;12.02;;;-2.00;99.90;;;;;;5013341;28;20571;-51
2022/03/05 05:20:21;;;;;;;43.03;12.02;;;-1.90;99.90;;;;;;5013637;28;20021;-51
2022/03/05 05:22:47;;;;;;;42.00;11.70;;;-1.90;99.90;;;;;;5013318;28;20022;-53
2022/03/05 05:25:12;;;;;;;44.22;13.48;;;-1.90;99.90;;;;;;5014791;28;20025;-55
2022/03/05 05:27:39;;;;;;;44.10;12.82;;;-2.00;99.90;;;;;;5013201;28;20037;-49
2022/03/05 05:30:06;;;;;;;40.20;11.55;;;-2.10;99.90;;;;;;5013149;28;20485;-50
2022/03/05 05:32:32;;;;;;;47.55;13.25;;;-2.20;99.90;;;;;;5014090;28;20038;-51
2022/03/05 05:34:58;;;;;;;44.03;11.77;;;-2.20;99.90;;;;;;5014368;28;20026;-48
2022/03/05 05:37:23;;;;;;;40.17;10.57;;;-2.20;99.90;;;;;;5014369;28;20034;-48
2022/03/05 05:39:49;;;;;;;42.78;10.43;;;-2.20;99.90;;;;;;5014572;28;20022;-48
2022/03/05 05:42:15;;;;;;;40.75;10.68;;;-2.20;99.90;;;;;;5014602;28;20026;-49
2022/03/05 05:44:40;;;;;;;40.00;11.90;;;-2.10;99.90;;;;;;5013793;28;20020;-49
2022/03/05 05:47:06;;;;;;;47.78;10.70;;;-2.00;99.90;;;;;;5013769;28;20029;-51
2022/03/05 05:49:32;;;;;;;36.25;10.82;;;-2.00;99.90;;;;;;5014163;28;20104;-48
2022/03/05 05:51:58;;;;;;;59.80;15.30;;;-2.10;99.90;;;;;;5014085;28;20030;-48
2022/03/05 05:54:23;;;;;;;56.10;14.88;;;-2.10;99.90;;;;;;5012874;28;20018;-49
2022/03/05 05:56:49;;;;;;;50.83;13.90;;;-2.30;99.90;;;;;;5012724;28;20026;-48
2022/03/05 05:59:15;;;;;;;52.67;13.15;;;-2.30;99.90;;;;;;5013944;28;20018;-49
2022/03/05 06:01:41;;;;;;;47.88;13.05;;;-2.20;99.90;;;;;;5013906;28;20108;-52
2022/03/05 06:04:07;;;;;;;49.92;14.38;;;-2.30;99.90;;;;;;5012778;28;20029;-50
2022/03/05 06:06:32;;;;;;;48.83;12.90;;;-2.30;99.90;;;;;;5013750;28;20022;-48
2022/03/05 06:08:58;;;;;;;46.70;13.75;;;-2.30;99.90;;;;;;5012634;28;20022;-49
2022/03/05 06:11:24;;;;;;;47.80;12.48;;;-2.30;99.90;;;;;;5013246;28;20026;-48
2022/03/05 06:13:50;;;;;;;44.90;13.82;;;-2.20;99.90;;;;;;5013743;28;20033;-48
2022/03/05 06:16:15;;;;;;;46.10;12.68;;;-2.10;99.90;;;;;;5012393;28;20032;-48
2022/03/05 06:18:41;;;;;;;52.88;13.32;;;-2.20;99.90;;;;;;5012497;28;20030;-49
2022/03/05 06:21:08;;;;;;;51.80;13.60;;;-2.10;99.90;;;;;;5013639;28;20022;-51
2022/03/05 06:23:34;;;;;;;48.90;12.45;;;-2.20;99.90;;;;;;5013700;28;20079;-54
2022/03/05 06:26:00;;;;;;;46.70;13.32;;;-2.10;99.90;;;;;;5014050;28;20022;-47
2022/03/05 06:28:27;;;;;;;43.95;11.73;;;-2.00;99.90;;;;;;5014190;28;20034;-52
2022/03/05 06:30:52;;;;;;;49.63;14.15;;;-1.90;99.90;;;;;;5013596;28;20041;-53
2022/03/05 06:33:18;;;;;;;48.25;13.25;;;-1.50;99.90;;;;;;5012632;28;20037;-52
2022/03/05 06:35:44;;;;;;;42.95;12.50;;;-1.20;99.90;;;;;;5013413;28;20163;-52
2022/03/05 06:38:11;;;;;;;48.15;13.85;;;-0.70;99.90;;;;;;5012324;28;20057;-50
2022/03/05 06:40:36;;;;;;;45.30;13.07;;;-0.20;99.90;;;;;;5012211;28;20504;-55
2022/03/05 06:43:02;;;;;;;51.30;13.52;;;0.30;99.90;;;;;;5013564;28;20092;-52
2022/03/05 06:45:28;;;;;;;46.78;13.27;;;0.70;99.90;;;;;;5013402;28;20109;-54
2022/03/05 06:47:54;;;;;;;39.42;12.85;;;0.90;99.90;;;;;;5012201;28;20088;-55
2022/03/05 06:50:20;;;;;;;51.33;13.55;;;1.70;99.90;;;;;;5012979;28;20030;-53
2022/03/05 06:52:45;;;;;;;43.90;13.13;;;2.40;99.90;;;;;;5012461;28;20495;-54
2022/03/05 06:55:15;;;;;;;44.33;12.88;;;2.90;99.90;;;;;;5012114;28;20097;-55
2022/03/05 06:57:41;;;;;;;44.35;14.40;;;3.20;99.90;;;;;;5012077;28;20037;-57
2022/03/05 07:00:08;;;;;;;41.63;13.80;;;3.80;99.90;;;;;;5011943;28;20041;-57
2022/03/05 07:02:34;;;;;;;47.40;14.23;;;4.30;99.90;;;;;;5012071;28;20492;-57
2022/03/05 07:05:00;;;;;;;45.20;14.05;;;4.70;99.90;;;;;;5013525;28;20033;-55
2022/03/05 07:07:25;;;;;;;45.17;13.90;;;5.10;99.90;;;;;;5012115;28;20022;-52
2022/03/05 07:09:51;;;;;;;40.10;14.00;;;5.10;99.90;;;;;;5013263;28;20076;-54
2022/03/05 07:12:17;;;;;;;41.88;13.55;;;5.60;99.90;;;;;;5013475;28;20030;-55
2022/03/05 07:21:26;;;;;;;40.85;14.07;;;7.40;99.90;;;;;;5013123;28;20033;-52
2022/03/05 07:23:52;;;;;;;43.83;14.13;;;7.80;99.90;;;;;;5015976;28;20026;-50
2022/03/05 07:26:18;;;;;;;44.08;15.52;;;8.30;99.90;;;;;;5015704;28;20042;-50
2022/03/05 07:28:47;;;;;;;46.00;15.55;;;9.00;99.90;;;;;;5015436;28;20022;-47
2022/03/05 07:31:13;;;;;;;45.15;16.20;;;9.20;99.90;;;;;;5016701;28;20030;-47
2022/03/05 07:33:38;;;;;;;46.55;16.65;;;9.80;99.90;;;;;;5015420;28;20029;-51
2022/03/05 07:36:04;;;;;;;51.25;18.52;;;10.10;99.90;;;;;;5015736;28;20040;-51
2022/03/05 07:38:34;;;;;;;43.83;17.38;;;10.20;99.90;;;;;;5016814;28;20030;-50
2022/03/05 07:41:00;;;;;;;39.78;16.33;;;10.60;99.90;;;;;;5016469;28;20033;-53
2022/03/05 07:43:25;;;;;;;48.40;17.13;;;10.70;99.90;;;;;;5016702;28;20014;-48
2022/03/05 07:45:51;;;;;;;51.15;19.55;;;11.10;99.00;;;;;;5016494;28;20491;-49
2022/03/05 07:48:21;;;;;;;44.33;17.35;;;11.30;98.90;;;;;;5016667;28;20034;-48
2022/03/05 07:50:48;;;;;;;48.15;16.90;;;11.30;97.90;;;;;;5016918;28;20021;-49
2022/03/05 07:53:14;;;;;;;42.20;16.27;;;11.90;96.10;;;;;;5016200;28;20028;-47
2022/03/05 07:55:40;;;;;;;48.55;18.88;;;12.30;95.50;;;;;;5015041;28;20018;-49
2022/03/05 07:58:06;;;;;;;46.80;18.17;;;12.50;94.20;;;;;;5015889;28;20022;-47
2022/03/05 08:00:32;;;;;;;40.75;17.23;;;13.10;94.80;;;;;;5016385;28;20537;-49
2022/03/05 08:02:58;;;;;;;40.83;16.70;;;13.70;91.50;;;;;;5016360;28;20026;-52
2022/03/05 08:05:24;;;;;;;38.30;17.38;;;14.00;91.90;;;;;;5015731;28;20022;-48
2022/03/05 08:07:49;;;;;;;44.97;20.23;;;14.40;92.50;;;;;;5015167;28;20059;-48
2022/03/05 08:10:15;;;;;;;42.38;18.75;;;14.20;88.30;;;;;;5014699;28;20495;-49
2022/03/05 08:12:41;;;;;;;46.92;19.38;;;14.60;87.00;;;;;;5016055;28;20032;-54
2022/03/05 08:15:08;;;;;;;42.40;18.13;;;15.40;87.40;;;;;;5014658;28;20026;-53
2022/03/05 08:17:33;;;;;;;50.53;21.25;;;15.80;84.30;;;;;;5015859;28;20036;-49
2022/03/05 08:19:59;;;;;;;45.33;18.95;;;16.20;82.80;;;;;;5014559;28;20022;-51
2022/03/05 08:22:25;;;;;;;41.75;18.25;;;16.00;80.20;;;;;;5014553;28;20025;-50
2022/03/05 08:24:51;;;;;;;39.08;18.20;;;16.50;80.70;;;;;;5015675;28;20104;-54
2022/03/05 08:27:17;;;;;;;37.75;18.77;;;15.80;77.60;;;;;;5015857;28;20118;-53
2022/03/05 08:29:42;;;;;;;37.95;18.42;;;17.40;76.90;;;;;;5014393;28;20054;-55
2022/03/05 08:32:08;;;;;;;40.83;19.70;;;17.10;76.70;;;;;;5015656;28;20097;-54
2022/03/05 08:34:34;;;;;;;41.92;19.55;;;18.00;71.90;;;;;;5013854;28;20037;-49
2022/03/05 08:36:59;;;;;;;36.25;18.13;;;17.80;69.90;;;;;;5015507;28;20444;-53
2022/03/05 08:39:25;;;;;;;36.75;18.98;;;18.20;72.90;;;;;;5014251;28;20018;-54
2022/03/05 08:41:51;;;;;;;38.38;18.85;;;17.90;70.90;;;;;;5014170;28;20029;-53
2022/03/05 08:44:17;;;;;;;39.80;20.40;;;17.60;69.00;;;;;;5015660;28;20033;-55
2022/03/05 08:46:43;;;;;;;41.10;19.73;;;17.30;71.00;;;;;;5015405;28;20101;-55
2022/03/05 08:49:08;;;;;;;35.95;18.27;;;17.80;68.50;;;;;;5014057;28;20112;-55
2022/03/05 08:51:34;;;;;;;39.72;18.70;;;16.40;70.00;;;;;;5015528;28;20038;-55
2022/03/05 08:53:59;;;;;;;37.75;19.63;;;15.80;71.40;;;;;;5015135;28;20026;-50
2022/03/05 08:56:25;;;;;;;41.33;20.60;;;15.90;71.70;;;;;;5015080;28;20033;-49
2022/03/05 08:58:59;;;;;;;40.38;20.10;;;16.20;71.90;;;;;;5015099;28;20081;-52
2022/03/05 09:01:25;;;;;;;40.25;19.40;;;16.50;72.00;;;;;;5015457;28;20033;-48
2022/03/05 09:03:50;;;;;;;35.78;18.20;;;16.50;74.10;;;;;;5013999;28;20080;-50
2022/03/05 09:06:16;;;;;;;37.58;17.60;;;17.30;71.70;;;;;;5013905;28;20029;-48
2022/03/05 09:08:41;;;;;;;33.78;17.13;;;17.10;71.80;;;;;;5013744;28;20026;-47
2022/03/05 09:11:08;;;;;;;33.63;16.65;;;17.70;73.00;;;;;;5014927;28;20080;-48
2022/03/05 09:13:34;;;;;;;36.83;18.27;;;17.30;71.50;;;;;;5015152;28;20022;-48
2022/03/05 09:15:59;;;;;;;31.15;17.10;;;17.50;70.00;;;;;;5013782;28;20420;-47
2022/03/05 09:18:25;;;;;;;25.88;15.82;;;17.30;71.80;;;;;;5014791;28;20034;-48
2022/03/05 09:20:51;;;;;;;26.13;15.13;;;18.70;67.90;;;;;;5013832;28;20034;-47
2022/03/05 09:23:16;;;;;;;24.00;14.82;;;17.40;67.10;;;;;;5013705;28;20053;-48
2022/03/05 09:25:42;;;;;;;23.85;14.27;;;16.10;67.00;;;;;;5014918;28;20030;-49
2022/03/05 09:28:08;;;;;;;22.90;14.05;;;14.30;71.80;;;;;;5015600;28;20037;-52
2022/03/05 09:30:33;;;;;;;26.73;14.40;;;14.60;73.00;;;;;;5014530;28;20022;-51
2022/03/05 09:32:59;;;;;;;21.67;13.30;;;14.40;73.00;;;;;;5013299;28;20033;-50
2022/03/05 09:35:24;;;;;;;23.75;13.88;;;15.30;71.80;;;;;;5013235;28;20029;-48
2022/03/05 09:37:50;;;;;;;21.73;13.85;;;15.70;70.70;;;;;;5013522;28;20081;-47
2022/03/05 09:40:16;;;;;;;23.58;14.30;;;14.90;71.20;;;;;;5014301;28;20029;-48
2022/03/05 09:42:43;;;;;;;25.98;14.32;;;15.40;73.50;;;;;;5014625;28;20026;-51
2022/03/05 09:45:11;;;;;;;23.80;14.30;;;15.80;71.10;;;;;;5013055;28;20026;-52
2022/03/05 09:47:41;;;;;;;22.42;12.35;;;16.10;72.30;;;;;;5013475;28;20022;-50
2022/03/05 09:50:07;;;;;;;23.73;14.32;;;17.40;73.80;;;;;;5013023;28;20030;-53
2022/03/05 09:52:33;;;;;;;23.55;13.68;;;18.70;66.00;;;;;;5014234;28;20476;-51
2022/03/05 09:54:59;;;;;;;26.67;15.60;;;18.20;65.30;;;;;;5013100;28;20033;-52
2022/03/05 09:57:25;;;;;;;24.33;15.32;;;16.80;66.50;;;;;;5012816;28;20112;-47
2022/03/05 09:59:51;;;;;;;21.30;13.75;;;15.50;67.70;;;;;;5013940;28;20053;-47
2022/03/05 10:02:18;;;;;;;22.17;13.40;;;14.40;70.30;;;;;;5014430;28;20035;-49
2022/03/05 10:04:43;;;;;;;24.95;13.55;;;13.40;72.30;;;;;;5014032;28;20026;-54
2022/03/05 10:07:16;;;;;;;27.58;13.73;;;13.00;73.30;;;;;;5013936;28;20044;-48
2022/03/05 10:09:47;;;;;;;26.58;13.18;;;13.80;74.40;;;;;;5013311;28;20080;-53
2022/03/05 10:12:32;;;;;;;22.48;13.13;;;13.90;72.60;;;;;;5014231;28;20026;-52
2022/03/05 10:15:07;;;;;;;27.10;13.25;;;13.00;74.00;;;;;;5013641;28;20037;-54
2022/03/05 10:17:54;;;;;;;24.05;12.73;;;12.30;76.50;;;;;;5013776;28;20046;-50
2022/03/05 10:20:25;;;;;;;27.88;12.75;;;12.20;77.30;;;;;;5013703;28;20022;-48
2022/03/05 10:23:01;;;;;;;21.58;11.07;;;11.80;78.40;;;;;;5013810;28;20022;-51
2022/03/05 10:25:30;;;;;;;26.52;12.40;;;11.50;79.40;;;;;;5013655;28;20018;-54
2022/03/05 10:28:05;;;;;;;28.40;13.00;;;10.80;79.70;;;;;;5013651;28;20409;-52
2022/03/05 10:30:39;;;;;;;24.77;11.30;;;10.70;81.30;;;;;;5013614;28;20022;-52
2022/03/05 10:33:07;;;;;;;22.90;12.05;;;10.50;81.80;;;;;;5012378;28;20053;-53
2022/03/05 10:35:32;;;;;;;27.58;12.02;;;10.30;81.50;;;;;;5012509;28;20026;-54
2022/03/05 10:37:58;;;;;;;25.58;12.55;;;9.70;83.50;;;;;;5012388;28;20052;-55
2022/03/05 10:40:35;;;;;;;25.38;11.73;;;9.30;85.10;;;;;;5013692;28;20380;-52
2022/03/05 10:43:04;;;;;;;23.63;11.48;;;9.60;85.00;;;;;;5013502;28;20101;-55
2022/03/05 10:45:47;;;;;;;33.85;12.40;;;9.40;85.60;;;;;;5012199;28;20032;-52
2022/03/05 10:48:31;;;;;;;22.73;10.55;;;9.60;86.70;;;;;;5013796;28;20018;-50
2022/03/05 10:51:03;;;;;;;26.15;11.20;;;9.70;86.30;;;;;;5012350;28;20104;-59
2022/03/05 10:53:55;;;;;;;21.45;11.30;;;9.70;84.80;;;;;;5012350;28;20052;-51
2022/03/05 10:56:28;;;;;;;;;;;9.30;86.00;;;;;;5010880;28;20044;-51
2022/03/05 10:58:56;;;;;;;18.83;9.40;;;9.20;85.50;;;;;;5015596;28;20319;-53
2022/03/05 11:01:23;;;;;;;23.35;10.40;;;9.00;84.80;;;;;;5017173;28;20033;-51
2022/03/05 11:03:52;;;;;;;20.77;10.50;;;8.50;86.10;;;;;;5017431;28;20022;-52
2022/03/05 11:06:19;;;;;;;25.77;11.02;;;8.30;88.50;;;;;;5015854;28;20025;-52
2022/03/05 11:08:47;;;;;;;24.77;10.57;;;7.90;89.30;;;;;;4999619;28;20030;-53
2022/03/05 11:11:15;;;;;;;26.77;10.63;;;7.90;90.00;;;;;;5016617;28;20062;-54
2022/03/05 11:13:41;;;;;;;26.02;10.50;;;7.80;90.70;;;;;;5017098;28;20034;-54
2022/03/05 11:16:08;;;;;;;23.85;9.38;;;7.60;90.00;;;;;;5016505;28;20041;-49
2022/03/05 11:18:33;;;;;;;24.20;10.38;;;7.70;90.10;;;;;;5016324;28;20082;-56
2022/03/05 11:21:00;;;;;;;24.45;9.77;;;7.60;90.60;;;;;;5016431;28;20112;-55
2022/03/05 11:23:27;;;;;;;27.23;10.80;;;7.70;90.60;;;;;;5015736;28;20022;-52
2022/03/05 11:25:53;;;;;;;26.25;10.52;;;7.70;90.80;;;;;;5015863;28;20375;-55
2022/03/05 11:28:20;;;;;;;20.75;8.80;;;7.60;90.60;;;;;;5016625;28;20044;-55
2022/03/05 11:30:46;;;;;;;24.38;9.27;;;7.40;90.70;;;;;;5016422;28;20030;-56
2022/03/05 11:33:38;;;;;;;22.95;9.75;;;7.60;91.00;;;;;;5015580;28;20026;-54
2022/03/05 11:36:07;;;;;;;22.67;10.23;;;7.60;91.30;;;;;;5006898;28;20125;-56
2022/03/05 11:38:38;;;;;;;19.05;8.32;;;7.50;91.50;;;;;;5016852;28;20440;-56
2022/03/05 11:41:19;;;;;;;15.68;8.00;;;7.50;88.20;;;;;;5016520;28;20088;-57
2022/03/05 11:43:46;;;;;;;20.15;8.70;;;7.20;87.60;;;;;;5015285;28;20018;-56
2022/03/05 11:46:24;;;;;;;20.25;8.43;;;7.30;90.00;;;;;;5015316;28;20109;-51
2022/03/05 11:49:07;;;;;;;18.65;8.18;;;7.20;89.10;;;;;;5016381;28;20050;-52
2022/03/05 11:51:34;;;;;;;19.90;8.23;;;7.30;90.40;;;;;;5015085;28;20049;-51
2022/03/05 11:54:13;;;;;;;19.33;7.82;;;7.40;90.00;;;;;;5016234;28;20034;-50
2022/03/05 11:56:59;;;;;;;18.63;8.40;;;7.50;92.00;;;;;;5016054;28;20109;-49
2022/03/05 11:59:33;;;;;;;20.73;9.00;;;7.70;91.00;;;;;;5015351;28;20025;-51
2022/03/05 12:01:59;;;;;;;17.75;7.88;;;7.80;91.10;;;;;;5015506;28;20087;-49
2022/03/05 12:04:28;;;;;;;15.70;7.85;;;7.90;90.70;;;;;;5016063;28;20491;-51
2022/03/05 12:07:02;;;;;;;19.23;8.43;;;7.70;88.40;;;;;;5014794;28;20021;-49
2022/03/05 12:09:33;;;;;;;16.92;7.70;;;7.60;89.40;;;;;;5015137;28;20041;-49
2022/03/05 12:12:01;;;;;;;15.95;7.07;;;7.90;88.40;;;;;;5014708;28;20392;-50
2022/03/05 12:14:55;;;;;;;16.25;7.75;;;7.80;86.00;;;;;;5014706;28;20030;-51
2022/03/05 12:17:22;;;;;;;12.98;6.15;;;7.70;88.30;;;;;;5015838;28;20377;-51
2022/03/05 12:19:48;;;;;;;12.95;5.78;;;7.80;85.40;;;;;;5015820;28;20022;-51
2022/03/05 12:22:15;;;;;;;14.02;6.35;;;7.70;83.50;;;;;;5016085;28;20022;-49
2022/03/05 12:24:40;;;;;;;18.40;7.47;;;7.70;85.80;;;;;;5015776;28;20083;-53
2022/03/05 12:27:10;;;;;;;17.67;7.68;;;7.50;85.90;;;;;;5015689;28;20034;-49
2022/03/05 12:29:36;;;;;;;14.95;6.82;;;7.30;86.00;;;;;;5015291;28;20018;-49
2022/03/05 12:32:02;;;;;;;17.83;7.75;;;7.60;88.60;;;;;;5015652;28;20060;-54
2022/03/05 12:34:34;;;;;;;18.48;7.72;;;7.70;86.70;;;;;;5015561;28;20034;-52
2022/03/05 12:37:00;;;;;;;20.20;7.18;;;7.70;86.20;;;;;;5015481;28;20037;-50
2022/03/05 12:39:25;;;;;;;15.48;6.72;;;7.50;84.40;;;;;;5014466;28;20034;-49